createdAt,value
2018-08-16T00:00:52.393Z,0.00
2018-08-16T00:01:53.035Z,0.00
2018-08-16T00:02:52.338Z,0.00
2018-08-16T00:03:52.602Z,0.00
2018-08-16T00:04:52.288Z,0.00
2018-08-16T00:05:53.036Z,0.00
2018-08-16T00:06:53.048Z,0.00
2018-08-16T00:07:52.211Z,0.00
2018-08-16T00:08:52.587Z,0.00
2018-08-16T00:09:53.036Z,0.00
2018-08-16T00:10:52.182Z,0.00
2018-08-16T00:11:52.112Z,0.00
2018-08-16T00:12:52.084Z,0.00
2018-08-16T00:13:53.039Z,0.00
2018-08-16T00:14:52.100Z,0.00
2018-08-16T00:15:52.541Z,0.00
2018-08-16T00:16:52.023Z,0.00
2018-08-16T00:17:51.964Z,0.00
2018-08-16T00:18:52.539Z,0.00
2018-08-16T00:19:52.094Z,0.00
2018-08-16T00:20:52.543Z,0.00
2018-08-16T00:21:52.542Z,0.00
2018-08-16T00:22:51.826Z,0.00
2018-08-16T00:23:52.541Z,0.00
2018-08-16T00:24:51.814Z,0.00
2018-08-16T00:25:51.750Z,0.00
2018-08-16T00:26:51.766Z,0.00
2018-08-16T00:27:51.709Z,0.00
2018-08-16T00:28:51.680Z,0.00
2018-08-16T00:29:51.648Z,0.00
2018-08-16T00:30:52.099Z,0.00
2018-08-16T00:31:52.541Z,0.00
2018-08-16T00:32:51.566Z,0.00
2018-08-16T00:33:51.544Z,0.00
2018-08-16T00:34:51.518Z,0.00
2018-08-16T00:35:51.535Z,0.00
2018-08-16T00:36:52.042Z,0.00
2018-08-16T00:37:51.439Z,0.00
2018-08-16T00:38:51.419Z,0.00
2018-08-16T00:39:52.045Z,0.00
2018-08-16T00:40:51.599Z,0.00
2018-08-16T00:41:51.336Z,0.00
2018-08-16T00:42:51.309Z,0.00
2018-08-16T00:43:51.328Z,0.00
2018-08-16T00:44:52.045Z,0.00
2018-08-16T00:45:52.046Z,0.00
2018-08-16T00:46:51.599Z,0.00
2018-08-16T00:47:51.180Z,0.00
2018-08-16T00:48:51.157Z,0.00
2018-08-16T00:49:51.133Z,0.00
2018-08-16T00:50:51.101Z,0.00
2018-08-16T00:51:51.133Z,0.00
2018-08-16T00:52:51.052Z,0.00
2018-08-16T00:53:51.547Z,0.00
2018-08-16T00:54:51.000Z,0.00
2018-08-16T00:55:51.556Z,0.00
2018-08-16T00:56:51.007Z,0.00
2018-08-16T00:57:50.925Z,0.00
2018-08-16T00:58:51.551Z,0.00
2018-08-16T00:59:51.552Z,0.00
2018-08-16T01:00:51.553Z,0.00
2018-08-16T01:01:50.877Z,0.00
2018-08-16T01:02:50.792Z,0.00
2018-08-16T01:03:50.809Z,0.00
2018-08-16T01:04:50.746Z,0.00
2018-08-16T01:05:51.549Z,0.00
2018-08-16T01:06:50.738Z,0.00
2018-08-16T01:07:51.553Z,0.00
2018-08-16T01:08:50.639Z,0.00
2018-08-16T01:09:50.617Z,0.00
2018-08-16T01:10:51.100Z,0.00
2018-08-16T01:11:51.550Z,0.00
2018-08-16T01:12:50.589Z,0.00
2018-08-16T01:13:50.510Z,0.00
2018-08-16T01:14:50.608Z,0.00
2018-08-16T01:15:51.134Z,0.00
2018-08-16T01:16:50.436Z,0.00
2018-08-16T01:17:50.454Z,0.00
2018-08-16T01:18:51.068Z,0.00
2018-08-16T01:19:50.362Z,0.00
2018-08-16T01:20:50.328Z,0.00
2018-08-16T01:21:51.051Z,0.00
2018-08-16T01:22:50.320Z,0.00
2018-08-16T01:23:51.056Z,0.00
2018-08-16T01:24:50.277Z,0.00
2018-08-16T01:25:50.203Z,0.00
2018-08-16T01:26:50.176Z,0.00
2018-08-16T01:27:51.055Z,0.00
2018-08-16T01:28:50.122Z,0.00
2018-08-16T01:29:50.143Z,0.00
2018-08-16T01:30:50.117Z,0.00
2018-08-16T01:31:50.554Z,0.00
2018-08-16T01:32:50.029Z,0.00
2018-08-16T01:33:50.555Z,0.00
2018-08-16T01:34:50.556Z,0.00
2018-08-16T01:35:49.985Z,0.00
2018-08-16T01:36:50.556Z,0.00
2018-08-16T01:37:50.561Z,0.00
2018-08-16T01:38:49.925Z,0.00
2018-08-16T01:39:49.838Z,0.00
2018-08-16T01:40:49.814Z,0.00
2018-08-16T01:41:50.562Z,0.00
2018-08-16T01:42:49.761Z,0.00
2018-08-16T01:43:49.780Z,0.00
2018-08-16T01:44:49.708Z,0.00
2018-08-16T01:45:50.112Z,0.00
2018-08-16T01:46:49.657Z,0.00
2018-08-16T01:47:49.631Z,0.00
2018-08-16T01:48:49.607Z,0.00
2018-08-16T01:49:49.584Z,0.00
2018-08-16T01:50:49.595Z,0.00
2018-08-16T01:51:49.617Z,0.00
2018-08-16T01:52:49.522Z,0.00
2018-08-16T01:53:50.058Z,0.00
2018-08-16T01:54:50.060Z,0.00
2018-08-16T01:55:50.062Z,0.00
2018-08-16T01:56:49.631Z,0.00
2018-08-16T01:57:49.373Z,0.00
2018-08-16T01:58:50.074Z,0.00
2018-08-16T01:59:50.060Z,0.00
2018-08-16T02:00:50.063Z,0.00
2018-08-16T02:01:49.630Z,0.00
2018-08-16T02:02:49.241Z,0.00
2018-08-16T02:03:50.063Z,0.00
2018-08-16T02:04:50.062Z,0.00
2018-08-16T02:05:50.063Z,0.00
2018-08-16T02:06:49.625Z,0.00
2018-08-16T02:07:50.086Z,0.00
2018-08-16T02:08:49.087Z,0.00
2018-08-16T02:09:49.572Z,0.00
2018-08-16T02:10:49.562Z,0.00
2018-08-16T02:11:49.058Z,0.00
2018-08-16T02:12:49.121Z,0.00
2018-08-16T02:13:49.563Z,0.00
2018-08-16T02:14:48.935Z,0.00
2018-08-16T02:15:48.924Z,0.00
2018-08-16T02:16:48.880Z,0.00
2018-08-16T02:17:48.901Z,0.00
2018-08-16T02:18:49.564Z,0.00
2018-08-16T02:19:48.800Z,0.00
2018-08-16T02:20:49.565Z,0.00
2018-08-16T02:21:48.753Z,0.00
2018-08-16T02:22:49.119Z,0.00
2018-08-16T02:23:49.568Z,0.00
2018-08-16T02:24:49.572Z,0.00
2018-08-16T02:25:48.710Z,0.00
2018-08-16T02:26:49.564Z,0.00
2018-08-16T02:27:48.609Z,0.00
2018-08-16T02:28:48.618Z,0.00
2018-08-16T02:29:49.066Z,0.00
2018-08-16T02:30:48.524Z,0.00
2018-08-16T02:31:49.066Z,0.00
2018-08-16T02:32:48.509Z,0.00
2018-08-16T02:33:49.068Z,0.00
2018-08-16T02:34:49.067Z,0.00
2018-08-16T02:35:48.455Z,0.00
2018-08-16T02:36:49.067Z,0.00
2018-08-16T02:37:48.380Z,0.00
2018-08-16T02:38:48.629Z,0.00
2018-08-16T02:39:49.067Z,0.00
2018-08-16T02:40:49.068Z,0.00
2018-08-16T02:41:49.068Z,0.00
2018-08-16T02:42:48.204Z,0.00
2018-08-16T02:43:48.225Z,0.00
2018-08-16T02:44:48.622Z,0.00
2018-08-16T02:45:49.077Z,0.00
2018-08-16T02:46:49.068Z,0.00
2018-08-16T02:47:48.076Z,0.00
2018-08-16T02:48:48.136Z,0.00
2018-08-16T02:49:48.023Z,0.00
2018-08-16T02:50:48.010Z,0.00
2018-08-16T02:51:47.972Z,0.00
2018-08-16T02:52:48.591Z,0.00
2018-08-16T02:53:48.127Z,0.00
2018-08-16T02:54:47.896Z,0.00
2018-08-16T02:55:47.864Z,0.00
2018-08-16T02:56:47.889Z,0.00
2018-08-16T02:57:47.815Z,0.00
2018-08-16T02:58:47.790Z,0.00
2018-08-16T02:59:48.570Z,0.00
2018-08-16T03:00:47.771Z,0.00
2018-08-16T03:01:47.754Z,0.00
2018-08-16T03:02:47.689Z,0.00
2018-08-16T03:03:48.578Z,0.00
2018-08-16T03:04:48.143Z,0.00
2018-08-16T03:05:47.605Z,0.00
2018-08-16T03:06:47.578Z,0.00
2018-08-16T03:07:48.072Z,0.00
2018-08-16T03:08:47.533Z,0.00
2018-08-16T03:09:47.640Z,0.00
2018-08-16T03:10:48.072Z,0.00
2018-08-16T03:11:48.075Z,0.00
2018-08-16T03:12:48.075Z,0.00
2018-08-16T03:13:48.074Z,4.00
2018-08-16T03:14:47.628Z,4.00
2018-08-16T03:15:47.396Z,4.00
2018-08-16T03:16:48.074Z,0.00
2018-08-16T03:17:47.292Z,4.00
2018-08-16T03:18:48.076Z,4.00
2018-08-16T03:19:48.074Z,4.00
2018-08-16T03:20:47.256Z,4.00
2018-08-16T03:21:47.187Z,8.00
2018-08-16T03:22:47.201Z,4.00
2018-08-16T03:23:48.075Z,8.00
2018-08-16T03:24:47.634Z,8.00
2018-08-16T03:25:47.085Z,8.00
2018-08-16T03:26:47.139Z,12.00
2018-08-16T03:27:47.032Z,16.00
2018-08-16T03:28:47.589Z,20.00
2018-08-16T03:29:47.593Z,20.00
2018-08-16T03:30:46.998Z,24.00
2018-08-16T03:31:47.597Z,24.00
2018-08-16T03:32:46.900Z,32.00
2018-08-16T03:33:47.581Z,36.00
2018-08-16T03:34:46.848Z,40.00
2018-08-16T03:35:46.857Z,44.00
2018-08-16T03:36:47.577Z,52.00
2018-08-16T03:37:46.769Z,60.00
2018-08-16T03:38:47.118Z,64.00
2018-08-16T03:39:46.729Z,76.00
2018-08-16T03:40:47.578Z,84.00
2018-08-16T03:41:47.578Z,92.00
2018-08-16T03:42:47.128Z,104.00
2018-08-16T03:43:47.579Z,116.00
2018-08-16T03:44:46.590Z,128.00
2018-08-16T03:45:46.559Z,144.00
2018-08-16T03:46:46.575Z,160.00
2018-08-16T03:47:46.548Z,180.00
2018-08-16T03:48:46.537Z,196.00
2018-08-16T03:49:47.079Z,220.00
2018-08-16T03:50:47.081Z,244.00
2018-08-16T03:51:46.642Z,268.00
2018-08-16T03:52:46.376Z,292.00
2018-08-16T03:53:47.082Z,320.00
2018-08-16T03:54:46.322Z,352.00
2018-08-16T03:55:47.098Z,384.00
2018-08-16T03:56:46.343Z,424.00
2018-08-16T03:57:46.248Z,460.00
2018-08-16T03:58:46.256Z,500.00
2018-08-16T03:59:46.638Z,544.00
2018-08-16T04:00:46.164Z,592.00
2018-08-16T04:01:46.184Z,636.00
2018-08-16T04:02:46.115Z,684.00
2018-08-16T04:03:46.092Z,736.00
2018-08-16T04:04:46.065Z,792.00
2018-08-16T04:05:46.148Z,844.00
2018-08-16T04:06:46.593Z,904.00
2018-08-16T04:07:45.980Z,960.00
2018-08-16T04:08:45.956Z,1020.00
2018-08-16T04:09:45.929Z,1080.00
2018-08-16T04:10:45.946Z,1144.00
2018-08-16T04:11:46.584Z,1208.00
2018-08-16T04:12:46.591Z,1272.00
2018-08-16T04:13:45.827Z,1332.00
2018-08-16T04:14:45.802Z,1400.00
2018-08-16T04:15:46.154Z,1468.00
2018-08-16T04:16:45.753Z,1532.00
2018-08-16T04:17:45.720Z,1596.00
2018-08-16T04:18:45.697Z,1664.00
2018-08-16T04:19:45.678Z,1728.00
2018-08-16T04:20:46.138Z,1792.00
2018-08-16T04:21:45.620Z,1860.00
2018-08-16T04:22:46.089Z,1932.00
2018-08-16T04:23:45.576Z,2000.00
2018-08-16T04:24:45.539Z,2072.00
2018-08-16T04:25:45.576Z,2144.00
2018-08-16T04:26:45.534Z,2212.00
2018-08-16T04:27:45.465Z,2288.00
2018-08-16T04:28:45.480Z,2360.00
2018-08-16T04:29:45.405Z,2428.00
2018-08-16T04:30:45.426Z,2496.00
2018-08-16T04:31:45.358Z,2564.00
2018-08-16T04:32:45.437Z,2640.00
2018-08-16T04:33:45.303Z,2712.00
2018-08-16T04:34:45.281Z,2784.00
2018-08-16T04:35:45.249Z,2860.00
2018-08-16T04:36:45.265Z,2936.00
2018-08-16T04:37:45.199Z,3012.00
2018-08-16T04:38:45.178Z,3092.00
2018-08-16T04:39:45.150Z,3168.00
2018-08-16T04:40:45.287Z,3252.00
2018-08-16T04:41:45.244Z,3324.00
2018-08-16T04:42:45.070Z,3404.00
2018-08-16T04:43:45.046Z,3492.00
2018-08-16T04:44:45.016Z,3560.00
2018-08-16T04:45:45.033Z,3628.00
2018-08-16T04:46:44.976Z,3700.00
2018-08-16T04:47:44.936Z,3772.00
2018-08-16T04:48:45.604Z,3844.00
2018-08-16T04:49:45.591Z,3908.00
2018-08-16T04:50:44.920Z,3980.00
2018-08-16T04:51:44.846Z,4044.00
2018-08-16T04:52:44.808Z,4108.00
2018-08-16T04:53:44.791Z,4168.00
2018-08-16T04:54:44.770Z,4236.00
2018-08-16T04:55:44.804Z,4300.00
2018-08-16T04:56:44.747Z,4360.00
2018-08-16T04:57:44.757Z,4428.00
2018-08-16T04:58:44.660Z,4496.00
2018-08-16T04:59:44.631Z,4560.00
2018-08-16T05:00:44.607Z,4620.00
2018-08-16T05:01:45.096Z,4680.00
2018-08-16T05:02:44.598Z,4748.00
2018-08-16T05:03:44.525Z,4824.00
2018-08-16T05:04:44.547Z,4924.00
2018-08-16T05:05:45.102Z,5128.00
2018-08-16T05:06:44.449Z,5168.00
2018-08-16T05:07:44.429Z,5052.00
2018-08-16T05:08:44.403Z,5116.00
2018-08-16T05:09:44.417Z,5180.00
2018-08-16T05:10:44.350Z,5240.00
2018-08-16T05:11:44.325Z,5300.00
2018-08-16T05:12:44.300Z,5356.00
2018-08-16T05:13:44.330Z,5412.00
2018-08-16T05:14:44.306Z,5472.00
2018-08-16T05:15:44.223Z,5528.00
2018-08-16T05:16:44.204Z,5580.00
2018-08-16T05:17:44.174Z,5628.00
2018-08-16T05:18:45.099Z,5680.00
2018-08-16T05:19:44.653Z,5728.00
2018-08-16T05:20:44.099Z,5780.00
2018-08-16T05:21:44.076Z,5828.00
2018-08-16T05:22:44.049Z,5880.00
2018-08-16T05:23:44.104Z,5920.00
2018-08-16T05:24:44.000Z,5968.00
2018-08-16T05:25:44.021Z,6016.00
2018-08-16T05:26:43.952Z,6068.00
2018-08-16T05:27:44.600Z,6112.00
2018-08-16T05:28:43.903Z,6156.00
2018-08-16T05:29:43.877Z,6196.00
2018-08-16T05:30:43.894Z,6236.00
2018-08-16T05:31:43.883Z,6272.00
2018-08-16T05:32:43.803Z,6316.00
2018-08-16T05:33:43.777Z,6352.00
2018-08-16T05:34:43.753Z,6388.00
2018-08-16T05:35:43.779Z,6420.00
2018-08-16T05:36:43.703Z,6452.00
2018-08-16T05:37:43.680Z,6480.00
2018-08-16T05:38:44.606Z,6504.00
2018-08-16T05:39:43.676Z,6528.00
2018-08-16T05:40:43.605Z,6552.00
2018-08-16T05:41:43.586Z,6576.00
2018-08-16T05:42:43.604Z,6600.00
2018-08-16T05:43:43.537Z,6632.00
2018-08-16T05:44:43.509Z,6652.00
2018-08-16T05:45:43.490Z,6672.00
2018-08-16T05:46:43.498Z,6696.00
2018-08-16T05:47:43.478Z,6716.00
2018-08-16T05:48:43.411Z,6736.00
2018-08-16T05:49:43.395Z,6748.00
2018-08-16T05:50:43.442Z,6756.00
2018-08-16T05:51:44.107Z,6768.00
2018-08-16T05:52:43.314Z,6772.00
2018-08-16T05:53:43.290Z,6780.00
2018-08-16T05:54:43.311Z,6784.00
2018-08-16T05:55:43.675Z,6784.00
2018-08-16T05:56:44.120Z,6792.00
2018-08-16T05:57:43.196Z,6804.00
2018-08-16T05:58:43.170Z,6812.00
2018-08-16T05:59:43.151Z,6828.00
2018-08-16T06:00:43.178Z,6840.00
2018-08-16T06:01:43.100Z,6848.00
2018-08-16T06:02:43.077Z,6864.00
2018-08-16T06:03:43.059Z,6872.00
2018-08-16T06:04:43.028Z,6888.00
2018-08-16T06:05:43.049Z,6900.00
2018-08-16T06:06:43.052Z,6908.00
2018-08-16T06:07:43.041Z,6920.00
2018-08-16T06:08:42.931Z,6928.00
2018-08-16T06:09:42.928Z,6940.00
2018-08-16T06:10:42.927Z,6944.00
2018-08-16T06:11:42.908Z,6956.00
2018-08-16T06:12:43.612Z,6968.00
2018-08-16T06:13:43.611Z,6980.00
2018-08-16T06:14:42.790Z,6996.00
2018-08-16T06:15:43.612Z,7004.00
2018-08-16T06:16:42.794Z,7024.00
2018-08-16T06:17:42.721Z,7032.00
2018-08-16T06:18:42.695Z,7048.00
2018-08-16T06:19:42.677Z,7060.00
2018-08-16T06:20:42.651Z,7072.00
2018-08-16T06:21:42.679Z,7076.00
2018-08-16T06:22:42.604Z,7084.00
2018-08-16T06:23:43.116Z,7084.00
2018-08-16T06:24:42.556Z,7092.00
2018-08-16T06:25:42.537Z,7092.00
2018-08-16T06:26:42.676Z,7096.00
2018-08-16T06:27:42.485Z,7100.00
2018-08-16T06:28:43.114Z,7108.00
2018-08-16T06:29:42.518Z,7120.00
2018-08-16T06:30:42.662Z,7136.00
2018-08-16T06:31:42.502Z,7148.00
2018-08-16T06:32:42.413Z,7156.00
2018-08-16T06:33:42.358Z,7168.00
2018-08-16T06:34:42.330Z,7172.00
2018-08-16T06:35:42.313Z,7184.00
2018-08-16T06:36:43.119Z,7196.00
2018-08-16T06:37:42.303Z,7204.00
2018-08-16T06:38:42.287Z,7208.00
2018-08-16T06:39:42.220Z,7212.00
2018-08-16T06:40:42.191Z,7212.00
2018-08-16T06:41:42.174Z,7224.00
2018-08-16T06:42:42.195Z,7236.00
2018-08-16T06:43:43.117Z,7248.00
2018-08-16T06:44:42.143Z,7256.00
2018-08-16T06:45:42.624Z,7264.00
2018-08-16T06:46:42.058Z,7268.00
2018-08-16T06:47:42.037Z,7276.00
2018-08-16T06:48:42.058Z,7280.00
2018-08-16T06:49:42.624Z,7280.00
2018-08-16T06:50:41.974Z,7280.00
2018-08-16T06:51:41.943Z,7280.00
2018-08-16T06:52:42.016Z,7280.00
2018-08-16T06:53:41.944Z,7284.00
2018-08-16T06:54:41.874Z,7292.00
2018-08-16T06:55:41.898Z,7292.00
2018-08-16T06:56:41.833Z,7296.00
2018-08-16T06:57:41.812Z,7288.00
2018-08-16T06:58:41.785Z,7276.00
2018-08-16T06:59:42.183Z,7272.00
2018-08-16T07:00:41.745Z,7268.00
2018-08-16T07:01:41.728Z,7260.00
2018-08-16T07:02:41.697Z,7260.00
2018-08-16T07:03:42.624Z,7252.00
2018-08-16T07:04:41.706Z,7252.00
2018-08-16T07:05:41.676Z,7248.00
2018-08-16T07:06:41.617Z,7236.00
2018-08-16T07:07:42.139Z,7224.00
2018-08-16T07:08:41.581Z,7208.00
2018-08-16T07:09:41.549Z,7196.00
2018-08-16T07:10:41.579Z,7184.00
2018-08-16T07:11:41.511Z,7172.00
2018-08-16T07:12:41.478Z,7148.00
2018-08-16T07:13:41.464Z,7148.00
2018-08-16T07:14:42.134Z,7140.00
2018-08-16T07:15:41.490Z,7128.00
2018-08-16T07:16:41.398Z,7120.00
2018-08-16T07:17:41.374Z,7104.00
2018-08-16T07:18:41.380Z,7092.00
2018-08-16T07:19:41.328Z,7084.00
2018-08-16T07:20:41.358Z,7072.00
2018-08-16T07:21:41.285Z,7064.00
2018-08-16T07:22:41.269Z,7056.00
2018-08-16T07:23:41.242Z,7048.00
2018-08-16T07:24:41.230Z,7036.00
2018-08-16T07:25:41.244Z,7028.00
2018-08-16T07:26:41.182Z,7020.00
2018-08-16T07:27:41.218Z,7016.00
2018-08-16T07:28:41.136Z,7008.00
2018-08-16T07:29:41.113Z,7000.00
2018-08-16T07:30:41.092Z,7004.00
2018-08-16T07:31:41.634Z,7000.00
2018-08-16T07:32:41.204Z,6996.00
2018-08-16T07:33:41.032Z,6992.00
2018-08-16T07:34:41.009Z,6996.00
2018-08-16T07:35:41.639Z,6996.00
2018-08-16T07:36:40.970Z,6992.00
2018-08-16T07:37:40.997Z,6992.00
2018-08-16T07:38:40.974Z,6988.00
2018-08-16T07:39:40.908Z,6980.00
2018-08-16T07:40:40.964Z,6976.00
2018-08-16T07:41:40.864Z,6968.00
2018-08-16T07:42:40.855Z,6952.00
2018-08-16T07:43:40.819Z,6948.00
2018-08-16T07:44:40.848Z,6944.00
2018-08-16T07:45:40.824Z,6932.00
2018-08-16T07:46:40.760Z,6932.00
2018-08-16T07:47:41.193Z,6924.00
2018-08-16T07:48:40.719Z,6912.00
2018-08-16T07:49:40.834Z,6912.00
2018-08-16T07:50:40.676Z,6904.00
2018-08-16T07:51:40.856Z,6904.00
2018-08-16T07:52:41.142Z,6908.00
2018-08-16T07:53:40.666Z,6896.00
2018-08-16T07:54:40.639Z,6900.00
2018-08-16T07:55:40.571Z,6904.00
2018-08-16T07:56:40.551Z,6904.00
2018-08-16T07:57:40.528Z,6908.00
2018-08-16T07:58:40.508Z,6900.00
2018-08-16T07:59:40.548Z,6900.00
2018-08-16T08:00:40.469Z,6888.00
2018-08-16T08:01:40.450Z,6888.00
2018-08-16T08:02:40.424Z,6876.00
2018-08-16T08:03:40.410Z,6868.00
2018-08-16T08:04:40.711Z,6864.00
2018-08-16T08:05:40.367Z,6856.00
2018-08-16T08:06:41.144Z,6848.00
2018-08-16T08:07:40.325Z,6840.00
2018-08-16T08:08:40.303Z,6840.00
2018-08-16T08:09:40.357Z,6832.00
2018-08-16T08:10:40.262Z,6824.00
2018-08-16T08:11:40.241Z,6812.00
2018-08-16T08:12:41.144Z,6812.00
2018-08-16T08:13:41.144Z,6796.00
2018-08-16T08:14:40.241Z,6772.00
2018-08-16T08:15:41.145Z,6760.00
2018-08-16T08:16:40.145Z,6760.00
2018-08-16T08:17:40.119Z,6744.00
2018-08-16T08:18:40.107Z,6748.00
2018-08-16T08:19:40.124Z,6752.00
2018-08-16T08:20:40.651Z,6756.00
2018-08-16T08:21:40.042Z,6748.00
2018-08-16T08:22:40.200Z,6740.00
2018-08-16T08:23:40.002Z,6736.00
2018-08-16T08:24:39.983Z,6724.00
2018-08-16T08:25:40.203Z,6720.00
2018-08-16T08:26:39.949Z,6728.00
2018-08-16T08:27:39.923Z,6728.00
2018-08-16T08:28:39.941Z,6728.00
2018-08-16T08:29:39.926Z,6728.00
2018-08-16T08:30:39.859Z,6736.00
2018-08-16T08:31:39.896Z,6732.00
2018-08-16T08:32:39.864Z,6724.00
2018-08-16T08:33:39.800Z,6716.00
2018-08-16T08:34:39.821Z,6712.00
2018-08-16T08:35:39.759Z,6700.00
2018-08-16T08:36:39.741Z,6692.00
2018-08-16T08:37:39.764Z,6692.00
2018-08-16T08:38:39.757Z,6700.00
2018-08-16T08:39:39.724Z,6708.00
2018-08-16T08:40:39.661Z,6696.00
2018-08-16T08:41:39.683Z,6684.00
2018-08-16T08:42:39.660Z,6680.00
2018-08-16T08:43:40.160Z,6668.00
2018-08-16T08:44:39.578Z,6668.00
2018-08-16T08:45:39.605Z,6672.00
2018-08-16T08:46:39.537Z,6664.00
2018-08-16T08:47:39.517Z,6656.00
2018-08-16T08:48:39.549Z,6644.00
2018-08-16T08:49:39.524Z,6628.00
2018-08-16T08:50:39.507Z,6624.00
2018-08-16T08:51:39.441Z,6616.00
2018-08-16T08:52:39.424Z,6604.00
2018-08-16T08:53:39.402Z,6588.00
2018-08-16T08:54:39.377Z,6596.00
2018-08-16T08:55:39.409Z,6624.00
2018-08-16T08:56:39.349Z,6624.00
2018-08-16T08:57:39.320Z,6616.00
2018-08-16T08:58:39.344Z,6612.00
2018-08-16T08:59:39.285Z,6600.00
2018-08-16T09:00:39.306Z,6596.00
2018-08-16T09:01:39.290Z,6592.00
2018-08-16T09:02:39.243Z,6588.00
2018-08-16T09:03:39.204Z,6584.00
2018-08-16T09:04:40.158Z,6584.00
2018-08-16T09:05:40.167Z,6576.00
2018-08-16T09:06:39.190Z,6572.00
2018-08-16T09:07:39.127Z,6572.00
2018-08-16T09:08:39.152Z,6560.00
2018-08-16T09:09:39.675Z,6552.00
2018-08-16T09:10:39.066Z,6536.00
2018-08-16T09:11:39.047Z,6516.00
2018-08-16T09:12:39.031Z,6516.00
2018-08-16T09:13:39.095Z,6496.00
2018-08-16T09:14:39.712Z,6480.00
2018-08-16T09:15:39.664Z,6464.00
2018-08-16T09:16:38.947Z,6456.00
2018-08-16T09:17:38.928Z,6448.00
2018-08-16T09:18:38.967Z,6440.00
2018-08-16T09:19:38.889Z,6548.00
2018-08-16T09:20:38.871Z,6560.00
2018-08-16T09:21:38.872Z,6568.00
2018-08-16T09:22:38.831Z,6576.00
2018-08-16T09:23:38.856Z,6576.00
2018-08-16T09:24:38.796Z,6576.00
2018-08-16T09:25:38.779Z,6568.00
2018-08-16T09:26:38.756Z,6564.00
2018-08-16T09:27:38.738Z,6560.00
2018-08-16T09:28:38.763Z,6540.00
2018-08-16T09:29:38.755Z,6540.00
2018-08-16T09:30:38.681Z,6548.00
2018-08-16T09:31:38.728Z,6536.00
2018-08-16T09:32:38.639Z,6520.00
2018-08-16T09:33:38.619Z,6516.00
2018-08-16T09:34:38.646Z,6504.00
2018-08-16T09:35:38.590Z,6496.00
2018-08-16T09:36:38.573Z,6488.00
2018-08-16T09:37:38.557Z,6476.00
2018-08-16T09:38:38.521Z,6468.00
2018-08-16T09:39:38.911Z,6456.00
2018-08-16T09:40:38.489Z,6452.00
2018-08-16T09:41:38.733Z,6440.00
2018-08-16T09:42:38.445Z,6436.00
2018-08-16T09:43:38.429Z,6444.00
2018-08-16T09:44:39.171Z,6444.00
2018-08-16T09:45:38.460Z,6444.00
2018-08-16T09:46:38.726Z,6440.00
2018-08-16T09:47:38.349Z,6420.00
2018-08-16T09:48:38.330Z,6384.00
2018-08-16T09:49:38.313Z,6372.00
2018-08-16T09:50:38.292Z,6356.00
2018-08-16T09:51:38.343Z,6332.00
2018-08-16T09:52:38.298Z,6316.00
2018-08-16T09:53:38.234Z,6300.00
2018-08-16T09:54:38.217Z,6280.00
2018-08-16T09:55:38.199Z,6284.00
2018-08-16T09:56:38.176Z,6308.00
2018-08-16T09:57:38.202Z,6328.00
2018-08-16T09:58:38.142Z,6328.00
2018-08-16T09:59:38.122Z,6328.00
2018-08-16T10:00:38.103Z,6340.00
2018-08-16T10:01:38.088Z,6328.00
2018-08-16T10:02:38.100Z,6320.00
2018-08-16T10:03:38.045Z,6320.00
2018-08-16T10:04:38.026Z,6304.00
2018-08-16T10:05:38.008Z,6308.00
2018-08-16T10:06:37.987Z,6320.00
2018-08-16T10:07:38.030Z,6308.00
2018-08-16T10:08:37.952Z,6276.00
2018-08-16T10:09:37.933Z,6252.00
2018-08-16T10:10:37.911Z,6240.00
2018-08-16T10:11:37.892Z,6224.00
2018-08-16T10:12:37.924Z,6244.00
2018-08-16T10:13:38.764Z,6260.00
2018-08-16T10:14:37.840Z,6288.00
2018-08-16T10:15:38.684Z,6312.00
2018-08-16T10:16:37.800Z,6280.00
2018-08-16T10:17:37.821Z,6284.00
2018-08-16T10:18:37.806Z,6296.00
2018-08-16T10:19:37.785Z,6276.00
2018-08-16T10:20:37.727Z,6256.00
2018-08-16T10:21:38.683Z,6232.00
2018-08-16T10:22:37.685Z,6212.00
2018-08-16T10:23:37.713Z,6208.00
2018-08-16T10:24:37.693Z,6204.00
2018-08-16T10:25:37.632Z,6212.00
2018-08-16T10:26:38.185Z,6224.00
2018-08-16T10:27:37.608Z,6244.00
2018-08-16T10:28:37.578Z,6264.00
2018-08-16T10:29:37.763Z,6260.00
2018-08-16T10:30:37.533Z,6260.00
2018-08-16T10:31:38.189Z,6264.00
2018-08-16T10:32:37.500Z,6240.00
2018-08-16T10:33:37.480Z,6192.00
2018-08-16T10:34:38.240Z,6168.00
2018-08-16T10:35:37.442Z,6188.00
2018-08-16T10:36:37.432Z,6232.00
2018-08-16T10:37:37.413Z,6312.00
2018-08-16T10:38:37.392Z,6376.00
2018-08-16T10:39:37.424Z,6396.00
2018-08-16T10:40:37.395Z,6412.00
2018-08-16T10:41:37.388Z,6340.00
2018-08-16T10:42:37.312Z,6272.00
2018-08-16T10:43:37.295Z,6220.00
2018-08-16T10:44:37.301Z,6204.00
2018-08-16T10:45:37.255Z,6184.00
2018-08-16T10:46:37.747Z,6132.00
2018-08-16T10:47:37.222Z,6092.00
2018-08-16T10:48:37.202Z,6092.00
2018-08-16T10:49:37.183Z,6092.00
2018-08-16T10:50:37.160Z,6096.00
2018-08-16T10:51:37.200Z,6156.00
2018-08-16T10:52:37.127Z,6200.00
2018-08-16T10:53:37.109Z,6184.00
2018-08-16T10:54:37.089Z,6160.00
2018-08-16T10:55:37.068Z,6196.00
2018-08-16T10:56:37.691Z,6220.00
2018-08-16T10:57:37.694Z,6232.00
2018-08-16T10:58:37.014Z,6168.00
2018-08-16T10:59:36.993Z,6084.00
2018-08-16T11:00:36.995Z,6056.00
2018-08-16T11:01:37.017Z,6020.00
2018-08-16T11:02:37.604Z,5960.00
2018-08-16T11:03:36.955Z,5932.00
2018-08-16T11:04:36.903Z,5920.00
2018-08-16T11:05:36.889Z,5920.00
2018-08-16T11:06:36.914Z,5952.00
2018-08-16T11:07:37.015Z,5964.00
2018-08-16T11:08:36.835Z,5944.00
2018-08-16T11:09:36.812Z,5984.00
2018-08-16T11:10:36.792Z,6040.00
2018-08-16T11:11:36.774Z,6000.00
2018-08-16T11:12:36.801Z,5964.00
2018-08-16T11:13:36.737Z,5968.00
2018-08-16T11:14:36.718Z,6144.00
2018-08-16T11:15:36.704Z,6208.00
2018-08-16T11:16:37.197Z,6156.00
2018-08-16T11:17:36.757Z,6064.00
2018-08-16T11:18:36.697Z,5976.00
2018-08-16T11:19:37.203Z,5904.00
2018-08-16T11:20:37.200Z,5864.00
2018-08-16T11:21:36.592Z,5852.00
2018-08-16T11:22:36.756Z,5832.00
2018-08-16T11:23:36.556Z,5800.00
2018-08-16T11:24:36.581Z,5800.00
2018-08-16T11:25:36.534Z,5784.00
2018-08-16T11:26:36.544Z,5756.00
2018-08-16T11:27:36.529Z,5744.00
2018-08-16T11:28:36.542Z,5744.00
2018-08-16T11:29:36.492Z,5740.00
2018-08-16T11:30:36.431Z,5736.00
2018-08-16T11:31:36.413Z,5736.00
2018-08-16T11:32:36.393Z,5744.00
2018-08-16T11:33:36.420Z,5728.00
2018-08-16T11:34:36.355Z,5736.00
2018-08-16T11:35:36.442Z,5740.00
2018-08-16T11:36:36.334Z,5756.00
2018-08-16T11:37:36.323Z,5760.00
2018-08-16T11:38:36.288Z,5760.00
2018-08-16T11:39:36.318Z,5744.00
2018-08-16T11:40:36.312Z,5732.00
2018-08-16T11:41:36.231Z,5712.00
2018-08-16T11:42:36.256Z,5708.00
2018-08-16T11:43:36.196Z,5696.00
2018-08-16T11:44:36.708Z,5696.00
2018-08-16T11:45:36.208Z,5696.00
2018-08-16T11:46:36.238Z,5700.00
2018-08-16T11:47:36.125Z,5712.00
2018-08-16T11:48:36.104Z,5700.00
2018-08-16T11:49:36.099Z,5684.00
2018-08-16T11:50:36.109Z,5680.00
2018-08-16T11:51:36.048Z,5664.00
2018-08-16T11:52:36.030Z,5656.00
2018-08-16T11:53:36.011Z,5644.00
2018-08-16T11:54:36.040Z,5632.00
2018-08-16T11:55:36.712Z,5632.00
2018-08-16T11:56:35.956Z,5628.00
2018-08-16T11:57:35.954Z,5632.00
2018-08-16T11:58:35.991Z,5636.00
2018-08-16T11:59:36.276Z,5644.00
2018-08-16T12:00:35.889Z,5644.00
2018-08-16T12:01:35.880Z,5652.00
2018-08-16T12:02:36.717Z,5644.00
2018-08-16T12:03:35.834Z,5636.00
2018-08-16T12:04:35.860Z,5640.00
2018-08-16T12:05:35.800Z,5632.00
2018-08-16T12:06:36.715Z,5600.00
2018-08-16T12:07:36.715Z,5592.00
2018-08-16T12:08:35.749Z,5588.00
2018-08-16T12:09:35.737Z,5592.00
2018-08-16T12:10:35.752Z,5596.00
2018-08-16T12:11:35.699Z,5592.00
2018-08-16T12:12:36.226Z,5612.00
2018-08-16T12:13:35.659Z,5620.00
2018-08-16T12:14:35.665Z,5616.00
2018-08-16T12:15:35.673Z,5620.00
2018-08-16T12:16:35.606Z,5612.00
2018-08-16T12:17:35.627Z,5592.00
2018-08-16T12:18:35.565Z,5572.00
2018-08-16T12:19:35.554Z,5572.00
2018-08-16T12:20:35.571Z,5592.00
2018-08-16T12:21:35.515Z,5608.00
2018-08-16T12:22:35.539Z,5600.00
2018-08-16T12:23:35.483Z,5604.00
2018-08-16T12:24:35.459Z,5600.00
2018-08-16T12:25:35.444Z,5608.00
2018-08-16T12:26:35.423Z,5620.00